createdAt,value
2023-02-11T00:04:06.347Z,103308.00
2023-02-11T00:14:29.882Z,103298.00
2023-02-11T00:24:51.652Z,103330.00
2023-02-11T00:35:14.709Z,103332.00
2023-02-11T00:45:36.430Z,103297.00
2023-02-11T00:56:01.139Z,103296.00
2023-02-11T01:06:23.378Z,103298.00
2023-02-11T01:16:46.620Z,103273.00
2023-02-11T01:27:08.254Z,103249.00
2023-02-11T01:37:33.520Z,103224.00
2023-02-11T01:47:55.414Z,103216.00
2023-02-11T01:58:18.711Z,103206.00
2023-02-11T02:08:45.076Z,103191.00
2023-02-11T02:19:27.052Z,103187.00
2023-02-11T02:30:18.766Z,103183.00
2023-02-11T02:40:47.739Z,103173.00
2023-02-11T02:51:23.377Z,103153.00
2023-02-11T03:01:56.180Z,103133.00
2023-02-11T03:12:18.451Z,103121.00
2023-02-11T03:22:49.811Z,103129.00
2023-02-11T03:33:19.574Z,103121.00
2023-02-11T03:43:46.240Z,103114.00
2023-02-11T03:54:12.082Z,103113.00
2023-02-11T04:04:35.385Z,103116.00
2023-02-11T04:14:57.155Z,103102.00
2023-02-11T04:25:20.238Z,103115.00
2023-02-11T04:35:41.911Z,103114.00
2023-02-11T04:46:04.801Z,103093.00
2023-02-11T04:56:26.435Z,103085.00
2023-02-11T05:06:49.257Z,103066.00
2023-02-11T05:17:11.203Z,103058.00
2023-02-11T05:27:34.285Z,103031.00
2023-02-11T05:37:55.901Z,103015.00
2023-02-11T05:48:19.522Z,103016.00
2023-02-11T05:58:41.442Z,103004.00
2023-02-11T06:09:05.494Z,103010.00
2023-02-11T06:19:27.078Z,103035.00
2023-02-11T06:29:52.394Z,103029.00
2023-02-11T06:40:14.581Z,103028.00
2023-02-11T06:50:38.018Z,103011.00
2023-02-11T07:00:59.883Z,103006.00
2023-02-11T07:11:25.495Z,103013.00
2023-02-11T07:21:48.668Z,102994.00
2023-02-11T07:32:12.001Z,102996.00
2023-02-11T07:42:34.853Z,102965.00
2023-02-11T07:52:57.922Z,102965.00
2023-02-11T08:03:19.515Z,102974.00
2023-02-11T08:13:43.155Z,102982.00
2023-02-11T08:24:05.737Z,103000.00
2023-02-11T08:34:29.289Z,103012.00
2023-02-11T08:44:50.972Z,103011.00
2023-02-11T08:55:14.689Z,103014.00
2023-02-11T09:05:36.637Z,102976.00
2023-02-11T09:16:00.467Z,102979.00
2023-02-11T09:26:24.471Z,102981.00
2023-02-11T09:36:47.467Z,102990.00
2023-02-11T09:47:24.765Z,103013.00
2023-02-11T09:57:48.174Z,103018.00
2023-02-11T10:08:17.461Z,103048.00
2023-02-11T10:18:53.800Z,103047.00
2023-02-11T10:29:27.173Z,103046.00
2023-02-11T10:39:50.369Z,103050.00
2023-02-11T10:50:25.245Z,103023.00
2023-02-11T11:00:54.101Z,103027.00
2023-02-11T11:11:18.002Z,102985.00
2023-02-11T11:21:45.121Z,102979.00
2023-02-11T11:32:12.909Z,102998.00
2023-02-11T11:42:37.709Z,103008.00
2023-02-11T11:53:04.258Z,103006.00
2023-02-11T12:03:42.354Z,102998.00
2023-02-11T12:14:18.532Z,103000.00
2023-02-11T12:25:04.310Z,102990.00
2023-02-11T12:35:35.344Z,102985.00
2023-02-11T12:46:13.011Z,102974.00
2023-02-11T12:56:41.306Z,102981.00
2023-02-11T13:07:08.399Z,102985.00
2023-02-11T13:17:37.107Z,102989.00
2023-02-11T13:28:06.427Z,103010.00
2023-02-11T13:38:32.582Z,103035.00
2023-02-11T13:48:55.935Z,103044.00
2023-02-11T13:59:46.120Z,103029.00
2023-02-11T14:10:47.404Z,103043.00
2023-02-11T14:21:14.216Z,103029.00
2023-02-11T14:31:44.161Z,103024.00
2023-02-11T14:42:06.304Z,103044.00
2023-02-11T14:52:32.201Z,103043.00
2023-02-11T15:02:54.230Z,103061.00
2023-02-11T15:13:22.467Z,103082.00
2023-02-11T15:23:56.568Z,103086.00
2023-02-11T15:34:25.186Z,103093.00
2023-02-11T15:44:52.321Z,103109.00
2023-02-11T15:55:20.943Z,103103.00
2023-02-11T16:05:42.441Z,103109.00
2023-02-11T16:16:06.989Z,103122.00
2023-02-11T16:26:33.779Z,103121.00
2023-02-11T16:36:56.685Z,103140.00
2023-02-11T16:47:21.739Z,103121.00
2023-02-11T16:57:45.231Z,103130.00
2023-02-11T17:08:07.056Z,103182.00
2023-02-11T17:18:30.541Z,103191.00
2023-02-11T17:28:52.314Z,103208.00
2023-02-11T17:39:15.938Z,103216.00
2023-02-11T17:49:38.216Z,103221.00
2023-02-11T18:00:01.967Z,103243.00
2023-02-11T18:10:25.391Z,103246.00
2023-02-11T18:20:57.389Z,103254.00
2023-02-11T18:31:19.981Z,103266.00
2023-02-11T18:41:43.699Z,103306.00
2023-02-11T18:52:05.474Z,103310.00
2023-02-11T19:02:29.908Z,103330.00
2023-02-11T19:12:56.248Z,103346.00
2023-02-11T19:23:19.469Z,103347.00
2023-02-11T19:33:49.975Z,103361.00
2023-02-11T19:44:15.082Z,103351.00
2023-02-11T19:54:41.414Z,103355.00
2023-02-11T20:05:04.906Z,103376.00
2023-02-11T20:15:27.296Z,103397.00
2023-02-11T20:25:50.561Z,103397.00
2023-02-11T20:36:20.443Z,103395.00
2023-02-11T20:46:47.106Z,103425.00
2023-02-11T20:57:09.884Z,103436.00
2023-02-11T21:07:37.078Z,103447.00
2023-02-11T21:18:07.955Z,103458.00
2023-02-11T21:28:31.034Z,103470.00
2023-02-11T21:38:53.405Z,103500.00
2023-02-11T21:49:16.347Z,103508.00
2023-02-11T21:59:38.556Z,103512.00
2023-02-11T22:10:01.944Z,103522.00
2023-02-11T22:20:25.583Z,103547.00
2023-02-11T22:30:53.950Z,103569.00
2023-02-11T22:41:16.334Z,103574.00
2023-02-11T22:51:40.122Z,103590.00
2023-02-11T23:02:06.655Z,103608.00
2023-02-11T23:12:30.196Z,103600.00
2023-02-11T23:22:59.404Z,103640.00
2023-02-11T23:33:24.394Z,103634.00
2023-02-11T23:43:46.252Z,103628.00
2023-02-11T23:54:15.099Z,103637.00
